Time;durP1;ratioP1;P1;durP2;ratioP2;P2;SDS_P1;SDS_P2;PMS_P1;PMS_P2;Temp;Humidity;BMP_temperature;BMP_pressure;BME280_temperature;BME280_humidity;BME280_pressure;Samples;Min_cycle;Max_cycle;Signal;HPM_P1;HPM_P2
2022/12/04 00:00:03;;;;;;;93.60;35.40;;;;;;;0.73;100.00;100003.51;104067;1345;22244;-30
2022/12/04 00:02:29;;;;;;;88.10;33.90;;;;;;;0.73;100.00;100003.15;103701;1342;22447;-30
2022/12/04 00:04:55;;;;;;;86.80;33.40;;;;;;;0.74;100.00;100010.13;104058;1345;22437;-29
2022/12/04 00:07:20;;;;;;;81.40;34.20;;;;;;;0.74;100.00;100012.71;103910;1342;22233;-29
2022/12/04 00:09:46;;;;;;;87.70;33.10;;;;;;;0.76;100.00;100010.82;103912;1342;22279;-32
2022/12/04 00:12:11;;;;;;;80.70;29.30;;;;;;;0.77;100.00;100003.31;104042;1342;22162;-33
2022/12/04 00:14:37;;;;;;;79.10;32.60;;;;;;;0.78;100.00;100003.81;104062;1342;23905;-33
2022/12/04 00:17:02;;;;;;;75.20;32.10;;;;;;;0.79;100.00;100001.97;104063;1345;22713;-30
2022/12/04 00:19:28;;;;;;;74.80;30.90;;;;;;;0.80;100.00;100001.17;103944;1348;23059;-33
2022/12/04 00:21:53;;;;;;;121.30;35.10;;;;;;;0.81;100.00;99994.24;104040;1342;22553;-33
2022/12/04 00:24:19;;;;;;;70.50;29.70;;;;;;;0.83;100.00;100001.48;103673;1338;22170;-33
2022/12/04 00:26:45;;;;;;;67.80;25.10;;;;;;;0.81;100.00;100007.80;104015;1342;22370;-33
2022/12/04 00:29:10;;;;;;;64.20;26.80;;;;;;;0.83;100.00;100007.09;104012;1340;22133;-29
2022/12/04 00:31:36;;;;;;;78.00;29.70;;;;;;;0.86;100.00;100006.16;104032;1341;22465;-30
2022/12/04 00:34:01;;;;;;;75.90;31.20;;;;;;;0.87;100.00;100004.52;104050;1344;22236;-33
2022/12/04 00:36:27;;;;;;;78.80;29.40;;;;;;;0.90;100.00;100000.73;103585;1346;22587;-29
2022/12/04 00:38:53;;;;;;;73.90;34.00;;;;;;;0.92;100.00;99998.96;104062;1343;22238;-34
2022/12/04 00:41:21;;;;;;;72.80;29.10;;;;;;;0.95;100.00;99997.19;104042;1345;22128;-29
2022/12/04 00:43:46;;;;;;;66.10;27.20;;;;;;;0.96;100.00;99999.02;104039;1340;22455;-33
2022/12/04 00:46:12;;;;;;;70.20;30.70;;;;;;;0.99;100.00;100001.95;104083;1346;22277;-29
2022/12/04 00:48:38;;;;;;;94.70;40.10;;;;;;;1.00;100.00;100000.85;104055;1343;22328;-33
2022/12/04 00:51:05;;;;;;;86.00;31.40;;;;;;;1.02;100.00;99996.64;103671;1340;22218;-29
2022/12/04 00:53:31;;;;;;;62.50;28.20;;;;;;;1.05;100.00;99996.17;104042;1335;22460;-33
2022/12/04 00:55:56;;;;;;;71.20;28.40;;;;;;;1.06;100.00;99987.33;104066;1340;22335;-31
2022/12/04 00:58:22;;;;;;;83.60;35.00;;;;;;;1.06;100.00;99986.65;104042;1339;22244;-33
2022/12/04 01:00:47;;;;;;;79.20;35.30;;;;;;;1.06;100.00;99986.46;104059;1342;22506;-33
2022/12/04 01:03:13;;;;;;;93.40;36.30;;;;;;;1.06;100.00;99985.20;104055;1345;22401;-33
2022/12/04 01:05:40;;;;;;;68.80;27.40;;;;;;;1.07;100.00;99986.54;104004;1342;22113;-30
2022/12/04 01:08:05;;;;;;;73.50;27.30;;;;;;;1.08;100.00;99979.38;103740;1342;22517;-33
2022/12/04 01:10:31;;;;;;;61.60;28.50;;;;;;;1.10;100.00;99977.30;104063;1342;22279;-29
2022/12/04 01:12:57;;;;;;;76.20;31.50;;;;;;;1.14;100.00;99981.22;103972;1345;22558;-30
2022/12/04 01:15:23;;;;;;;51.20;24.40;;;;;;;1.16;100.00;99978.38;104027;1342;22260;-30
2022/12/04 01:17:48;;;;;;;78.80;30.50;;;;;;;1.19;100.00;99977.84;104008;1342;22232;-33
2022/12/04 01:20:14;;;;;;;72.90;28.90;;;;;;;1.22;100.00;99974.44;104073;1343;22224;-30
2022/12/04 01:22:39;;;;;;;78.60;27.80;;;;;;;1.24;100.00;99979.90;103442;1342;22585;-29
2022/12/04 01:25:06;;;;;;;74.00;27.40;;;;;;;1.24;100.00;99977.95;104004;1340;22546;-33
2022/12/04 01:27:31;;;;;;;95.80;32.70;;;;;;;1.28;100.00;99981.17;104018;1345;22427;-33
2022/12/04 01:29:57;;;;;;;75.10;31.20;;;;;;;1.31;100.00;99977.94;104094;1342;22148;-33
2022/12/04 01:32:23;;;;;;;86.40;31.80;;;;;;;1.35;100.00;99975.30;103984;1342;22547;-33
2022/12/04 01:34:48;;;;;;;97.50;34.50;;;;;;;1.37;100.00;99973.36;103616;1342;22571;-33
2022/12/04 01:37:14;;;;;;;70.20;21.70;;;;;;;1.37;100.00;99972.13;103943;1343;22560;-33
2022/12/04 01:39:40;;;;;;;70.70;29.70;;;;;;;1.38;100.00;99969.20;104071;1344;22477;-29
2022/12/04 01:42:08;;;;;;;69.80;28.60;;;;;;;1.39;100.00;99963.98;104074;1345;22556;-33
2022/12/04 01:44:34;;;;;;;60.30;25.70;;;;;;;1.41;100.00;99962.50;104030;1343;22214;-30
2022/12/04 01:46:59;;;;;;;70.10;28.10;;;;;;;1.42;100.00;99962.08;104037;1345;22445;-29
2022/12/04 01:49:29;;;;;;;81.20;30.90;;;;;;;1.44;100.00;99974.27;104044;1345;22199;-32
2022/12/04 01:51:58;;;;;;;68.10;30.10;;;;;;;1.45;100.00;99969.05;104035;1343;22190;-30
2022/12/04 01:54:27;;;;;;;73.30;29.50;;;;;;;1.49;100.00;99964.86;104060;1341;22609;-30
2022/12/04 01:56:57;;;;;;;67.60;24.90;;;;;;;1.50;100.00;99963.15;103784;1348;22148;-33
2022/12/04 01:59:24;;;;;;;102.70;34.00;;;;;;;1.52;100.00;99966.48;104014;1343;22239;-33
2022/12/04 02:01:56;;;;;;;116.20;33.80;;;;;;;1.53;100.00;99961.65;103933;1345;24015;-33
2022/12/04 02:04:22;;;;;;;79.00;30.00;;;;;;;1.56;100.00;99952.43;104017;1346;22548;-33
2022/12/04 02:06:48;;;;;;;79.10;25.90;;;;;;;1.57;100.00;99960.31;104009;1345;22133;-29
2022/12/04 02:09:14;;;;;;;69.20;26.00;;;;;;;1.56;100.00;99954.16;103670;1342;540684;-30
2022/12/04 02:11:43;;;;;;;74.10;30.80;;;;;;;1.57;100.00;99955.69;104056;1345;22301;-30
2022/12/04 02:14:17;;;;;;;60.50;24.30;;;;;;;1.58;100.00;99948.05;104067;1341;22200;-33
2022/12/04 02:16:49;;;;;;;64.90;31.10;;;;;;;1.58;100.00;99939.92;103999;1342;22221;-33
2022/12/04 02:19:26;;;;;;;68.40;29.20;;;;;;;1.56;100.00;99936.38;104067;1340;22380;-29
2022/12/04 02:21:53;;;;;;;63.40;27.00;;;;;;;1.55;100.00;99935.61;104041;1344;22181;-34
2022/12/04 02:24:27;;;;;;;70.90;29.30;;;;;;;1.52;100.00;99931.91;104036;1344;22395;-33
2022/12/04 02:26:59;;;;;;;73.20;29.90;;;;;;;1.49;100.00;99932.50;104072;1342;22219;-29
2022/12/04 02:29:30;;;;;;;61.00;23.00;;;;;;;1.48;100.00;99938.95;102976;1345;24688;-29
2022/12/04 02:32:02;;;;;;;69.20;28.50;;;;;;;1.46;100.00;99938.80;103461;1348;22236;-30
2022/12/04 02:34:29;;;;;;;62.00;29.30;;;;;;;1.45;100.00;99933.92;104042;1345;22233;-29
2022/12/04 02:36:59;;;;;;;57.80;24.30;;;;;;;1.42;100.00;99931.12;104055;1343;22312;-33
2022/12/04 02:39:32;;;;;;;66.90;26.10;;;;;;;1.41;100.00;99934.25;104066;1343;22232;-34
2022/12/04 02:42:02;;;;;;;59.90;25.80;;;;;;;1.38;100.00;99930.73;103795;1345;22564;-34
2022/12/04 02:44:29;;;;;;;76.60;30.10;;;;;;;1.37;100.00;99925.36;103969;1345;22390;-29
2022/12/04 02:46:59;;;;;;;67.20;31.00;;;;;;;1.37;100.00;99919.23;104083;1345;22403;-33
2022/12/04 02:49:29;;;;;;;68.10;27.00;;;;;;;1.38;100.00;99913.66;104059;1345;22245;-30
2022/12/04 02:51:55;;;;;;;59.90;26.80;;;;;;;1.32;100.00;99923.45;104028;1342;22254;-33
2022/12/04 02:54:24;;;;;;;75.30;29.00;;;;;;;1.30;100.00;99925.91;103268;1345;24240;-33
2022/12/04 02:56:50;;;;;;;71.10;26.60;;;;;;;1.32;100.00;99923.33;103921;1343;22508;-33
2022/12/04 02:59:19;;;;;;;64.80;25.80;;;;;;;1.30;100.00;99922.58;104041;1345;22216;-30
2022/12/04 03:01:46;;;;;;;75.10;31.50;;;;;;;1.31;100.00;99926.98;104042;1343;22383;-33
2022/12/04 03:04:16;;;;;;;78.30;29.50;;;;;;;1.30;100.00;99926.83;104067;1345;22099;-33
2022/12/04 03:06:43;;;;;;;61.80;25.00;;;;;;;1.32;100.00;99928.42;104013;1337;22553;-33
2022/12/04 03:09:12;;;;;;;62.90;28.00;;;;;;;1.32;100.00;99930.21;104114;1344;22380;-33
2022/12/04 03:11:37;;;;;;;62.80;26.00;;;;;;;1.35;100.00;99935.40;104102;1343;22227;-30
2022/12/04 03:14:10;;;;;;;61.70;24.70;;;;;;;1.37;100.00;99935.08;103958;1347;22245;-34
2022/12/04 03:16:38;;;;;;;68.10;27.30;;;;;;;1.39;100.00;99935.48;104117;1338;22998;-34
2022/12/04 03:19:08;;;;;;;64.60;25.80;;;;;;;1.41;100.00;99939.33;103759;1340;22565;-30
2022/12/04 03:21:37;;;;;;;60.80;25.20;;;;;;;1.42;100.00;99941.77;104100;1340;22548;-34
2022/12/04 03:24:11;;;;;;;57.30;25.60;;;;;;;1.43;100.00;99949.45;104098;1340;22583;-34
2022/12/04 03:26:41;;;;;;;70.30;29.10;;;;;;;1.45;100.00;99947.49;103607;1345;22443;-34
2022/12/04 03:29:09;;;;;;;57.50;24.10;;;;;;;1.47;100.00;99949.14;104077;1341;22109;-34
2022/12/04 03:31:41;;;;;;;66.90;27.60;;;;;;;1.47;100.00;99949.27;104118;1343;22631;-33
2022/12/04 03:34:07;;;;;;;78.00;30.00;;;;;;;1.46;100.00;99950.77;104113;1345;24918;-34
2022/12/04 03:36:36;;;;;;;60.90;25.80;;;;;;;1.46;100.00;99948.17;104013;1339;22377;-30
2022/12/04 03:39:11;;;;;;;67.80;29.10;;;;;;;1.45;100.00;99947.31;104067;1339;22553;-34
2022/12/04 03:41:40;;;;;;;77.40;28.20;;;;;;;1.44;100.00;99949.38;104095;1345;22454;-34
2022/12/04 03:44:11;;;;;;;69.70;29.90;;;;;;;1.42;100.00;99950.55;104106;1343;22401;-34
2022/12/04 03:46:39;;;;;;;59.70;25.70;;;;;;;1.41;100.00;99948.35;104096;1339;22370;-30
2022/12/04 03:49:10;;;;;;;79.30;28.70;;;;;;;1.39;100.00;99946.70;104017;1345;22390;-34
2022/12/04 03:51:40;;;;;;;61.80;28.40;;;;;;;1.38;100.00;99941.02;104096;1340;22656;-34
2022/12/04 03:54:13;;;;;;;62.10;26.70;;;;;;;1.35;100.00;99939.29;104125;1343;22120;-34
2022/12/04 03:56:42;;;;;;;63.20;27.40;;;;;;;1.33;100.00;99939.61;104075;1340;22579;-30
2022/12/04 03:59:11;;;;;;;69.50;30.30;;;;;;;1.31;100.00;99938.76;104088;1339;23100;-34
2022/12/04 04:01:39;;;;;;;54.30;25.70;;;;;;;1.31;100.00;99942.65;104096;1339;22155;-34
2022/12/04 04:04:06;;;;;;;71.30;29.00;;;;;;;1.30;100.00;99943.27;104090;1339;22259;-34
2022/12/04 04:06:36;;;;;;;55.60;24.20;;;;;;;1.29;100.00;99951.10;104089;1339;22383;-34
2022/12/04 04:09:05;;;;;;;56.40;23.70;;;;;;;1.28;100.00;99953.06;104111;1339;22395;-34
2022/12/04 04:11:34;;;;;;;62.60;26.90;;;;;;;1.28;100.00;99954.55;103727;1342;23032;-33
2022/12/04 04:26:33;;;;;;;57.70;24.00;;;;;;;1.09;100.00;99961.34;104068;1345;22629;-30
2022/12/04 04:28:59;;;;;;;45.00;21.50;;;;;;;1.04;100.00;99959.95;104042;1338;22093;-34
2022/12/04 04:31:39;;;;;;;54.90;24.40;;;;;;;1.00;100.00;99958.52;104035;1344;22191;-34
2022/12/04 04:34:09;;;;;;;57.40;25.60;;;;;;;0.94;100.00;99956.04;104095;1340;22629;-30
2022/12/04 04:36:41;;;;;;;57.00;25.90;;;;;;;0.86;100.00;99954.33;104053;1338;22216;-34
2022/12/04 04:39:14;;;;;;;64.40;22.40;;;;;;;0.80;100.00;99952.20;104100;1345;22202;-30
2022/12/04 04:41:47;;;;;;;63.80;25.60;;;;;;;0.76;100.00;99952.67;104072;1344;22507;-34
2022/12/04 04:44:18;;;;;;;59.20;25.20;;;;;;;0.73;100.00;99952.77;104100;1333;22210;-34
2022/12/04 04:46:50;;;;;;;51.70;22.20;;;;;;;0.69;100.00;99954.12;103904;1339;22569;-30
2022/12/04 04:49:16;;;;;;;59.50;23.50;;;;;;;0.65;100.00;99951.42;103996;1339;22192;-34
2022/12/04 04:51:42;;;;;;;53.40;25.30;;;;;;;0.61;100.00;99954.69;104104;1338;22418;-30
2022/12/04 04:54:09;;;;;;;60.10;26.00;;;;;;;0.57;100.00;99949.92;104116;1339;22377;-30
2022/12/04 04:56:39;;;;;;;72.80;36.20;;;;;;;0.53;100.00;99944.39;104083;1339;22220;-30
2022/12/04 04:59:04;;;;;;;57.30;28.00;;;;;;;0.50;100.00;99941.63;104143;1345;22575;-34
2022/12/04 05:01:30;;;;;;;67.20;29.50;;;;;;;0.47;100.00;99940.31;104107;1339;22397;-30
2022/12/04 05:03:56;;;;;;;77.20;32.10;;;;;;;0.43;100.00;99939.14;103583;1332;22194;-34
2022/12/04 05:06:22;;;;;;;41.90;19.50;;;;;;;0.39;100.00;99944.09;104114;1343;22549;-30
2022/12/04 05:08:48;;;;;;;65.10;26.30;;;;;;;0.35;100.00;99945.80;104120;1344;22444;-30
2022/12/04 05:11:14;;;;;;;67.10;24.50;;;;;;;0.32;100.00;99944.06;104008;1343;22217;-33
2022/12/04 05:13:40;;;;;;;67.60;27.10;;;;;;;0.30;100.00;99944.62;104036;1339;22920;-30
2022/12/04 05:16:09;;;;;;;89.00;34.70;;;;;;;0.31;100.00;99941.39;104099;1344;22580;-32
2022/12/04 05:18:34;;;;;;;46.70;25.10;;;;;;;0.31;100.00;99942.38;104080;1340;22125;-29
2022/12/04 05:21:05;;;;;;;58.50;26.70;;;;;;;0.31;100.00;99941.73;104118;1339;22547;-34
2022/12/04 05:23:30;;;;;;;54.50;25.10;;;;;;;0.30;100.00;99943.02;104090;1346;22313;-29
2022/12/04 05:25:59;;;;;;;57.70;28.40;;;;;;;0.29;100.00;99943.13;104000;1339;22553;-30
2022/12/04 05:28:26;;;;;;;57.40;28.00;;;;;;;0.27;100.00;99935.34;104062;1348;22593;-34
2022/12/04 05:30:55;;;;;;;48.50;24.30;;;;;;;0.24;100.00;99923.73;104121;1339;22385;-33
2022/12/04 05:33:20;;;;;;;48.70;22.70;;;;;;;0.26;100.00;99921.86;104097;1339;22650;-30
2022/12/04 05:35:54;;;;;;;54.60;21.40;;;;;;;0.28;100.00;99922.75;104096;1339;22392;-30
2022/12/04 05:38:20;;;;;;;48.00;21.90;;;;;;;0.31;100.00;99928.16;104059;1340;22176;-30
2022/12/04 05:40:46;;;;;;;56.80;23.10;;;;;;;0.30;100.00;99928.41;104086;1339;22376;-34
2022/12/04 05:43:11;;;;;;;38.10;17.40;;;;;;;0.33;100.00;99933.75;104113;1340;22580;-33
2022/12/04 05:45:37;;;;;;;46.60;20.50;;;;;;;0.36;100.00;99937.46;104071;1340;22227;-33
2022/12/04 05:48:03;;;;;;;45.70;21.60;;;;;;;0.39;100.00;99942.13;104090;1340;22592;-30
2022/12/04 05:50:29;;;;;;;46.00;20.90;;;;;;;0.43;100.00;99943.96;104123;1340;22488;-31
2022/12/04 05:52:55;;;;;;;38.30;18.30;;;;;;;0.45;100.00;99946.58;103939;1339;22560;-36
2022/12/04 05:55:20;;;;;;;23.10;11.40;;;;;;;0.48;100.00;99954.27;103724;1336;22148;-30
2022/12/04 05:57:46;;;;;;;39.70;19.60;;;;;;;0.53;100.00;99955.70;104102;1339;22528;-34
2022/12/04 06:00:13;;;;;;;49.10;19.80;;;;;;;0.57;100.00;99953.79;104060;1340;22301;-34
2022/12/04 06:02:39;;;;;;;49.70;21.40;;;;;;;0.60;100.00;99956.14;104082;1340;22554;-30
2022/12/04 06:05:05;;;;;;;36.80;15.70;;;;;;;0.62;100.00;99964.02;104090;1346;22620;-30
2022/12/04 06:07:30;;;;;;;42.70;18.50;;;;;;;0.66;100.00;99966.49;104030;1338;22233;-30
2022/12/04 06:09:56;;;;;;;38.80;18.30;;;;;;;0.69;100.00;99970.15;104058;1330;22546;-32
2022/12/04 06:12:22;;;;;;;38.10;18.10;;;;;;;0.71;100.00;99971.89;104119;1340;22573;-34
2022/12/04 06:14:47;;;;;;;37.10;16.90;;;;;;;0.73;100.00;99969.64;104008;1346;22228;-30
2022/12/04 06:17:14;;;;;;;37.90;18.90;;;;;;;0.72;100.00;99970.58;104070;1339;22673;-34
2022/12/04 06:19:39;;;;;;;36.40;16.30;;;;;;;0.70;100.00;99967.02;104014;1339;22589;-30
2022/12/04 06:22:05;;;;;;;41.10;17.20;;;;;;;0.68;100.00;99971.04;104113;1343;22325;-31
2022/12/04 06:24:31;;;;;;;47.00;19.00;;;;;;;0.66;100.00;99974.24;103990;1339;22575;-30
2022/12/04 06:26:57;;;;;;;42.50;19.00;;;;;;;0.63;100.00;99970.61;103818;1342;22198;-34
2022/12/04 06:29:23;;;;;;;47.50;19.70;;;;;;;0.58;100.00;99966.23;104094;1339;22123;-30
2022/12/04 06:31:49;;;;;;;47.60;20.80;;;;;;;0.52;100.00;99965.25;103998;1339;24382;-30
2022/12/04 06:34:14;;;;;;;49.80;20.60;;;;;;;0.47;100.00;99972.14;103991;1339;22388;-34
2022/12/04 06:36:41;;;;;;;50.60;21.40;;;;;;;0.43;100.00;99970.57;104015;1340;22278;-34
2022/12/04 06:39:07;;;;;;;57.60;22.70;;;;;;;0.37;100.00;99973.61;104107;1339;22230;-34
2022/12/04 06:41:33;;;;;;;58.00;19.80;;;;;;;0.34;100.00;99979.73;103908;1332;22610;-31
2022/12/04 06:43:59;;;;;;;50.70;22.50;;;;;;;0.29;100.00;99983.28;103876;1339;22227;-34
2022/12/04 06:46:26;;;;;;;386.50;92.00;;;;;;;0.24;100.00;99978.15;103903;1339;22580;-34
2022/12/04 06:48:53;;;;;;;91.80;37.80;;;;;;;0.21;100.00;99977.16;104033;1339;23231;-30
2022/12/04 06:51:22;;;;;;;58.20;28.60;;;;;;;0.17;100.00;99987.11;104095;1339;22389;-33
2022/12/04 06:53:48;;;;;;;59.80;28.40;;;;;;;0.15;100.00;99986.58;103962;1339;22554;-34
2022/12/04 06:56:20;;;;;;;38.50;19.80;;;;;;;0.13;100.00;99988.00;104101;1339;22216;-34
2022/12/04 06:58:47;;;;;;;46.10;20.80;;;;;;;0.11;100.00;99998.69;104034;1339;22388;-30
2022/12/04 07:01:14;;;;;;;46.80;24.40;;;;;;;0.13;100.00;100009.33;104085;1339;22398;-30
2022/12/04 07:03:40;;;;;;;43.90;22.70;;;;;;;0.16;100.00;100008.02;104038;1339;22113;-30
2022/12/04 07:06:13;;;;;;;58.60;30.10;;;;;;;0.19;100.00;100013.23;104030;1340;24280;-30
2022/12/04 07:08:38;;;;;;;59.60;31.30;;;;;;;0.21;100.00;100004.82;103844;1339;22193;-34
2022/12/04 07:11:04;;;;;;;73.10;33.00;;;;;;;0.24;100.00;100006.17;103987;1339;22587;-29
2022/12/04 07:13:30;;;;;;;59.80;24.30;;;;;;;0.26;100.00;100010.91;103240;1342;22561;-33
2022/12/04 07:15:59;;;;;;;48.60;20.90;;;;;;;0.32;100.00;100008.55;103930;1339;22563;-30
2022/12/04 07:18:24;;;;;;;41.80;21.30;;;;;;;0.33;100.00;100010.21;104040;1339;22649;-30
2022/12/04 07:20:50;;;;;;;44.60;23.40;;;;;;;0.32;100.00;100016.27;103229;1341;22576;-30
2022/12/04 07:23:15;;;;;;;46.90;23.90;;;;;;;0.33;100.00;100017.64;103719;1339;22388;-30
2022/12/04 07:25:41;;;;;;;27.70;15.90;;;;;;;0.37;100.00;100022.80;103642;1342;22315;-33
2022/12/04 07:28:07;;;;;;;39.20;19.80;;;;;;;0.43;100.00;100020.95;104030;1339;22564;-34
2022/12/04 07:30:33;;;;;;;36.40;18.30;;;;;;;0.51;100.00;100026.48;104033;1338;22229;-30
2022/12/04 07:32:59;;;;;;;37.30;18.60;;;;;;;0.70;100.00;100035.30;103967;1332;22572;-34
2022/12/04 07:35:25;;;;;;;56.40;29.40;;;;;;;0.89;100.00;100035.20;104080;1339;22396;-32
2022/12/04 07:37:51;;;;;;;60.20;30.70;;;;;;;1.00;100.00;100026.60;104079;1339;22265;-30
2022/12/04 07:40:17;;;;;;;48.70;23.10;;;;;;;1.09;100.00;100021.33;103912;1334;22541;-30
2022/12/04 07:42:42;;;;;;;37.80;19.90;;;;;;;1.17;100.00;100019.80;103768;1333;22660;-30
2022/12/04 07:45:08;;;;;;;43.60;29.40;;;;;;;1.19;100.00;100012.77;103606;1340;22581;-30
2022/12/04 07:47:35;;;;;;;43.70;19.00;;;;;;;1.15;100.00;100005.63;104018;1340;22215;-30
2022/12/04 07:50:01;;;;;;;72.60;33.10;;;;;;;1.17;100.00;100002.33;103912;1339;22572;-30
2022/12/04 07:52:27;;;;;;;50.70;23.10;;;;;;;1.17;100.00;100000.71;103745;1339;22834;-34
2022/12/04 07:54:53;;;;;;;43.50;20.40;;;;;;;1.19;100.00;99999.66;103834;1334;22873;-30
2022/12/04 07:57:19;;;;;;;106.90;46.00;;;;;;;1.19;100.00;100000.55;103923;1339;22534;-34
2022/12/04 07:59:44;;;;;;;44.00;22.40;;;;;;;1.18;100.00;99995.73;103906;1339;22236;-30
2022/12/04 08:02:12;;;;;;;74.40;34.80;;;;;;;1.17;100.00;99994.56;103910;1340;22710;-30
2022/12/04 08:04:37;;;;;;;41.30;21.00;;;;;;;1.19;100.00;99988.42;103917;1339;22690;-30
2022/12/04 08:07:03;;;;;;;58.10;27.30;;;;;;;1.23;100.00;99986.83;103830;1341;22230;-29
2022/12/04 08:09:29;;;;;;;204.50;88.80;;;;;;;1.30;100.00;99985.42;103878;1335;22318;-30
2022/12/04 08:11:54;;;;;;;57.20;27.40;;;;;;;1.35;100.00;99979.91;103807;1339;22393;-34
2022/12/04 08:14:20;;;;;;;107.70;51.60;;;;;;;1.40;100.00;99974.55;103966;1346;22604;-34
2022/12/04 08:16:48;;;;;;;85.60;44.60;;;;;;;1.43;100.00;99970.63;103945;1346;22570;-34
2022/12/04 08:19:13;;;;;;;45.70;23.70;;;;;;;1.51;100.00;99971.24;103619;1339;22569;-30
2022/12/04 08:21:39;;;;;;;41.00;18.80;;;;;;;1.57;100.00;99963.99;103846;1339;22137;-31
2022/12/04 08:24:05;;;;;;;36.20;20.10;;;;;;;1.65;100.00;99960.35;103927;1339;22701;-30
2022/12/04 08:26:32;;;;;;;45.50;24.10;;;;;;;1.75;100.00;99956.02;103878;1339;22639;-34
2022/12/04 08:28:58;;;;;;;51.90;25.60;;;;;;;1.83;100.00;99950.70;103974;1340;22554;-32
2022/12/04 08:31:25;;;;;;;43.80;22.00;;;;;;;1.93;100.00;99950.30;104010;1339;22297;-33
2022/12/04 08:33:52;;;;;;;34.10;18.80;;;;;;;1.99;100.00;99948.55;103924;1339;22579;-34
2022/12/04 08:36:19;;;;;;;37.10;18.40;;;;;;;2.05;100.00;99949.92;103571;1340;22546;-34
2022/12/04 08:38:46;;;;;;;39.50;20.50;;;;;;;2.15;100.00;99947.70;103993;1332;22663;-33
2022/12/04 08:41:12;;;;;;;37.90;19.70;;;;;;;2.22;100.00;99946.92;104038;1339;22553;-31
2022/12/04 08:43:38;;;;;;;49.80;21.70;;;;;;;2.28;100.00;99948.73;103300;1339;22653;-30
2022/12/04 08:46:07;;;;;;;30.60;16.60;;;;;;;2.38;100.00;99949.16;103793;1339;22559;-34
2022/12/04 08:48:32;;;;;;;37.40;19.20;;;;;;;2.42;100.00;99954.04;103806;1339;22631;-34
2022/12/04 08:50:58;;;;;;;33.70;18.70;;;;;;;2.46;100.00;99953.01;103956;1340;22228;-34
2022/12/04 08:53:24;;;;;;;35.80;19.20;;;;;;;2.47;100.00;99955.39;103992;1338;22542;-31
2022/12/04 08:55:50;;;;;;;37.40;19.10;;;;;;;2.51;100.00;99956.49;103995;1340;22560;-30
2022/12/04 08:58:16;;;;;;;32.90;17.20;;;;;;;2.58;100.00;99959.63;103915;1339;22570;-31
2022/12/04 09:00:41;;;;;;;43.10;24.40;;;;;;;2.63;100.00;99965.55;103793;1339;22576;-31
2022/12/04 09:03:10;;;;;;;39.10;18.10;;;;;;;2.69;100.00;99965.52;104000;1340;22449;-30
2022/12/04 09:05:36;;;;;;;45.90;20.70;;;;;;;2.75;100.00;99971.02;104045;1339;22578;-31
2022/12/04 09:08:02;;;;;;;111.00;43.40;;;;;;;2.80;100.00;99973.09;103647;1333;22559;-30
2022/12/04 09:10:28;;;;;;;46.00;20.10;;;;;;;2.81;100.00;99973.34;103631;1340;22555;-30
2022/12/04 09:12:53;;;;;;;593.40;164.70;;;;;;;2.89;100.00;99975.87;104083;1330;22535;-30
2022/12/04 09:15:19;;;;;;;113.10;36.70;;;;;;;3.01;100.00;99980.63;103703;1339;22596;-34
2022/12/04 09:17:44;;;;;;;31.80;17.30;;;;;;;3.07;100.00;99977.98;103885;1324;22558;-30
2022/12/04 09:20:10;;;;;;;339.10;105.00;;;;;;;3.16;100.00;99978.08;103802;1339;22174;-30
2022/12/04 09:22:37;;;;;;;263.50;74.60;;;;;;;3.31;100.00;99972.33;104038;1339;22332;-31
2022/12/04 09:25:04;;;;;;;31.90;17.10;;;;;;;3.40;100.00;99969.97;104058;1339;22596;-33
2022/12/04 09:27:30;;;;;;;37.40;18.30;;;;;;;3.45;100.00;99967.88;103998;1343;22553;-30
2022/12/04 09:29:55;;;;;;;56.10;25.30;;;;;;;3.57;100.00;99968.85;104048;1338;22578;-34
2022/12/04 09:32:21;;;;;;;171.40;70.90;;;;;;;3.70;100.00;99965.31;104013;1342;22643;-34
2022/12/04 09:34:47;;;;;;;27.40;16.10;;;;;;;3.80;100.00;99962.49;104073;1338;22570;-31
2022/12/04 09:37:12;;;;;;;31.60;17.40;;;;;;;3.79;100.00;99958.54;104054;1332;22561;-34
2022/12/04 09:39:39;;;;;;;71.40;42.70;;;;;;;3.79;100.00;99952.81;103952;1340;22314;-32
2022/12/04 09:42:12;;;;;;;44.50;28.20;;;;;;;3.79;100.00;99950.85;103674;1340;24494;-34
2022/12/04 09:44:39;;;;;;;;;;;;;;;3.83;100.00;99950.64;103884;1339;22573;-34
2022/12/04 09:47:12;;;;;;;39.60;19.30;;;;;;;3.84;100.00;99942.58;103858;1346;22324;-31
2022/12/04 09:49:42;;;;;;;35.90;19.00;;;;;;;3.85;100.00;99941.46;103876;1339;23259;-31
2022/12/04 09:52:12;;;;;;;35.60;17.20;;;;;;;3.92;100.00;99935.49;103904;1339;22547;-30
2022/12/04 09:54:39;;;;;;;32.70;18.00;;;;;;;3.92;100.00;99936.70;104063;1340;22165;-31
2022/12/04 09:57:15;;;;;;;39.30;20.90;;;;;;;4.00;100.00;99931.34;103896;1341;22408;-34
2022/12/04 09:59:41;;;;;;;31.00;16.80;;;;;;;4.08;100.00;99935.30;104059;1340;22554;-34
2022/12/04 10:02:18;;;;;;;28.70;16.80;;;;;;;4.17;100.00;99932.65;103945;1338;22125;-34
2022/12/04 10:04:44;;;;;;;34.80;19.00;;;;;;;4.28;100.00;99930.62;103976;1340;22561;-31
2022/12/04 10:07:13;;;;;;;29.10;18.00;;;;;;;4.31;100.00;99926.55;104092;1338;22455;-35
2022/12/04 10:09:45;;;;;;;28.20;17.40;;;;;;;4.38;100.00;99920.77;103719;1340;503037;-34
2022/12/04 10:12:19;;;;;;;33.50;19.10;;;;;;;4.36;100.00;99921.51;104074;1339;22586;-31
2022/12/04 10:14:49;;;;;;;27.70;14.80;;;;;;;4.34;100.00;99922.23;103684;1332;22339;-31
2022/12/04 10:17:18;;;;;;;28.60;16.30;;;;;;;4.30;100.00;99923.52;103976;1339;22126;-34
2022/12/04 10:19:46;;;;;;;36.70;18.90;;;;;;;4.27;100.00;99920.61;104000;1338;22561;-34
2022/12/04 10:22:19;;;;;;;30.00;15.20;;;;;;;4.31;100.00;99916.17;103947;1340;22554;-31
2022/12/04 10:24:48;;;;;;;35.90;16.60;;;;;;;4.43;100.00;99910.88;104036;1339;22647;-34
2022/12/04 10:27:20;;;;;;;27.90;14.80;;;;;;;4.39;100.00;99904.19;104052;1339;22436;-34
2022/12/04 10:29:48;;;;;;;28.70;15.60;;;;;;;4.39;100.00;99902.97;104085;1340;22412;-31
2022/12/04 10:32:17;;;;;;;28.80;17.90;;;;;;;4.49;100.00;99900.27;104000;1339;23311;-34
2022/12/04 10:34:43;;;;;;;28.70;15.00;;;;;;;4.59;100.00;99898.73;103970;1342;22166;-31
2022/12/04 10:37:11;;;;;;;33.00;19.10;;;;;;;4.59;100.00;99897.86;104097;1339;22633;-34
2022/12/04 10:39:41;;;;;;;30.90;18.50;;;;;;;4.66;100.00;99892.56;103948;1339;22562;-34
2022/12/04 10:42:14;;;;;;;77.70;38.10;;;;;;;4.76;100.00;99887.73;103523;1339;22091;-30
2022/12/04 10:44:40;;;;;;;56.80;35.90;;;;;;;4.79;100.00;99883.02;104006;1339;22653;-30
2022/12/04 10:47:07;;;;;;;118.80;66.80;;;;;;;4.84;100.00;99884.30;103986;1339;22546;-34
2022/12/04 10:49:34;;;;;;;150.90;69.50;;;;;;;4.94;100.00;99879.23;103997;1339;22335;-31
2022/12/04 10:52:00;;;;;;;69.20;36.10;;;;;;;5.03;100.00;99881.57;103915;1328;22129;-30
2022/12/04 10:54:32;;;;;;;131.10;69.50;;;;;;;5.12;99.92;99880.53;104099;1338;22559;-34
2022/12/04 10:57:00;;;;;;;46.30;24.30;;;;;;;5.13;99.47;99880.45;104049;1339;22221;-30
2022/12/04 10:59:26;;;;;;;857.50;252.50;;;;;;;5.07;99.60;99879.41;103841;1341;22211;-30
2022/12/04 11:02:01;;;;;;;657.70;161.30;;;;;;;5.08;99.60;99875.95;103535;1338;22558;-30
2022/12/04 11:04:28;;;;;;;844.00;216.40;;;;;;;5.12;99.03;99873.92;103888;1339;22274;-30
2022/12/04 11:07:01;;;;;;;66.20;22.00;;;;;;;5.05;97.87;99870.41;104083;1342;22551;-30
2022/12/04 11:09:28;;;;;;;424.00;115.30;;;;;;;4.98;98.34;99875.48;103998;1346;23297;-31
2022/12/04 11:12:04;;;;;;;42.40;20.90;;;;;;;5.01;98.29;99874.52;104029;1339;22669;-34
2022/12/04 11:14:30;;;;;;;617.20;212.40;;;;;;;4.99;98.60;99875.56;104027;1339;22560;-34
2022/12/04 11:17:00;;;;;;;472.70;156.30;;;;;;;5.02;98.20;99872.84;103530;1339;22271;-31
2022/12/04 11:19:27;;;;;;;222.40;74.30;;;;;;;4.98;97.89;99873.19;103940;1341;22557;-34